createdAt,value
2022-09-17T00:01:47.113Z,94421.00
2022-09-17T00:04:15.677Z,94419.54
2022-09-17T00:06:43.956Z,94420.60
2022-09-17T00:09:12.354Z,94412.23
2022-09-17T00:11:43.836Z,94412.02
2022-09-17T00:14:17.696Z,94407.73
2022-09-17T00:16:48.149Z,94405.81
2022-09-17T00:19:20.330Z,94407.72
2022-09-17T00:21:49.159Z,94408.30
2022-09-17T00:24:19.088Z,94405.50
2022-09-17T00:26:48.607Z,94419.33
2022-09-17T00:29:18.471Z,94430.94
2022-09-17T00:31:47.586Z,94437.29
2022-09-17T00:34:17.217Z,94434.99
2022-09-17T00:36:45.413Z,94437.20
2022-09-17T00:39:15.941Z,94434.04
2022-09-17T00:41:44.672Z,94430.67
2022-09-17T00:44:40.754Z,94432.09
2022-09-17T00:47:19.012Z,94430.21
2022-09-17T00:49:52.892Z,94427.17
2022-09-17T00:52:29.701Z,94422.67
2022-09-17T00:55:12.727Z,94425.46
2022-09-17T00:57:42.286Z,94429.54
2022-09-17T01:00:11.270Z,94427.80
2022-09-17T01:02:40.503Z,94425.55
2022-09-17T01:05:10.440Z,94422.27
2022-09-17T01:08:01.111Z,94422.23
2022-09-17T01:10:47.560Z,94428.17
2022-09-17T01:13:19.902Z,94435.91
2022-09-17T01:16:00.222Z,94430.23
2022-09-17T01:18:31.790Z,94426.27
2022-09-17T01:21:16.081Z,94428.25
2022-09-17T01:24:22.326Z,94423.84
2022-09-17T01:27:12.284Z,94419.80
2022-09-17T01:30:18.808Z,94421.35
2022-09-17T01:33:03.328Z,94415.48
2022-09-17T01:35:38.426Z,94408.70
2022-09-17T01:38:38.990Z,94413.27
2022-09-17T01:41:28.789Z,94408.61
2022-09-17T01:44:17.643Z,94411.91
2022-09-17T01:47:04.408Z,94413.73
2022-09-17T01:49:38.027Z,94415.88
2022-09-17T01:52:10.735Z,94416.58
2022-09-17T01:54:48.516Z,94414.20
2022-09-17T01:57:23.144Z,94415.23
2022-09-17T02:00:11.610Z,94413.18
2022-09-17T02:02:52.737Z,94400.33
2022-09-17T02:05:40.265Z,94391.51
2022-09-17T02:08:14.530Z,94390.29
2022-09-17T02:10:53.264Z,94390.46
2022-09-17T02:13:33.063Z,94384.88
2022-09-17T02:16:17.745Z,94378.94
2022-09-17T02:19:17.585Z,94368.16
2022-09-17T02:22:07.214Z,94356.48
2022-09-17T02:24:44.760Z,94363.31
2022-09-17T02:27:19.950Z,94379.44
2022-09-17T02:29:49.541Z,94386.73
2022-09-17T02:32:17.755Z,94389.80
2022-09-17T02:34:46.754Z,94387.19
2022-09-17T02:37:15.647Z,94382.01
2022-09-17T02:39:46.052Z,94390.39
2022-09-17T02:42:39.428Z,94385.53
2022-09-17T02:45:07.900Z,94374.80
2022-09-17T02:47:54.699Z,94362.23
2022-09-17T02:50:37.730Z,94357.64
2022-09-17T02:53:12.483Z,94359.30
2022-09-17T02:56:02.109Z,94357.52
2022-09-17T02:59:07.110Z,94365.20
2022-09-17T03:01:48.091Z,94367.22
2022-09-17T03:04:18.907Z,94370.83
2022-09-17T03:06:48.178Z,94385.30
2022-09-17T03:09:16.828Z,94383.48
2022-09-17T03:11:46.307Z,94377.89
2022-09-17T03:14:15.465Z,94383.45
2022-09-17T03:16:43.760Z,94388.79
2022-09-17T03:19:14.052Z,94390.82
2022-09-17T03:21:42.813Z,94389.39
2022-09-17T03:24:11.960Z,94382.92
2022-09-17T03:26:40.888Z,94374.73
2022-09-17T03:29:09.329Z,94368.77
2022-09-17T03:31:37.819Z,94366.94
2022-09-17T03:34:06.792Z,94370.77
2022-09-17T03:36:36.115Z,94377.81
2022-09-17T03:39:05.392Z,94384.52
2022-09-17T03:41:33.621Z,94386.24
2022-09-17T03:44:03.424Z,94386.30
2022-09-17T03:46:32.205Z,94386.88
2022-09-17T03:49:03.293Z,94383.34
2022-09-17T03:51:31.473Z,94386.98
2022-09-17T03:54:00.204Z,94384.95
2022-09-17T03:56:29.229Z,94392.89
2022-09-17T03:59:00.997Z,94397.33
2022-09-17T04:01:29.846Z,94394.79
2022-09-17T04:03:58.110Z,94385.56
2022-09-17T04:06:29.059Z,94381.08
2022-09-17T04:08:57.593Z,94381.73
2022-09-17T04:11:27.620Z,94376.64
2022-09-17T04:13:58.503Z,94365.68
2022-09-17T04:16:26.954Z,94371.11
2022-09-17T04:18:55.932Z,94372.11
2022-09-17T04:21:24.111Z,94371.67
2022-09-17T04:23:52.344Z,94380.37
2022-09-17T04:26:20.552Z,94385.52
2022-09-17T04:28:49.302Z,94384.45
2022-09-17T04:31:18.805Z,94379.15
2022-09-17T04:33:47.269Z,94377.66
2022-09-17T04:36:16.119Z,94377.06
2022-09-17T04:38:45.450Z,94378.58
2022-09-17T04:41:14.073Z,94382.23
2022-09-17T04:43:42.350Z,94382.78
2022-09-17T04:46:10.768Z,94383.36
2022-09-17T04:48:39.148Z,94381.32
2022-09-17T04:51:07.467Z,94378.74
2022-09-17T04:53:38.372Z,94377.34
2022-09-17T04:56:06.599Z,94369.41
2022-09-17T04:58:34.841Z,94361.79
2022-09-17T05:01:03.856Z,94367.78
2022-09-17T05:03:33.145Z,94373.95
2022-09-17T05:06:01.520Z,94373.51
2022-09-17T05:08:29.867Z,94372.29
2022-09-17T05:10:58.390Z,94388.56
2022-09-17T05:13:26.710Z,94392.29
2022-09-17T05:15:57.063Z,94387.89
2022-09-17T05:18:26.977Z,94384.13
2022-09-17T05:20:55.045Z,94385.56
2022-09-17T05:23:24.898Z,94383.71
2022-09-17T05:25:54.742Z,94381.20
2022-09-17T05:28:23.148Z,94377.51
2022-09-17T05:30:52.935Z,94371.02
2022-09-17T05:33:21.670Z,94369.48
2022-09-17T05:35:50.187Z,94378.53
2022-09-17T05:38:19.200Z,94376.77
2022-09-17T05:40:49.231Z,94372.75
2022-09-17T05:43:17.829Z,94374.13
2022-09-17T05:45:46.992Z,94376.42
2022-09-17T05:48:15.778Z,94375.70
2022-09-17T05:50:44.614Z,94372.57
2022-09-17T05:53:14.141Z,94370.48
2022-09-17T05:55:43.267Z,94369.86
2022-09-17T05:58:20.118Z,94373.89
2022-09-17T06:00:49.572Z,94364.80
2022-09-17T06:03:20.274Z,94360.35
2022-09-17T06:05:58.453Z,94366.30
2022-09-17T06:08:29.150Z,94370.92
2022-09-17T06:11:02.355Z,94369.31
2022-09-17T06:13:31.906Z,94365.23
2022-09-17T06:16:01.697Z,94360.85
2022-09-17T06:18:31.885Z,94351.07
2022-09-17T06:21:04.346Z,94350.23
2022-09-17T06:23:36.349Z,94355.09
2022-09-17T06:26:06.008Z,94353.77
2022-09-17T06:28:39.177Z,94344.94
2022-09-17T06:31:12.350Z,94340.10
2022-09-17T06:33:42.378Z,94343.52
2022-09-17T06:36:14.488Z,94345.58
2022-09-17T06:38:47.120Z,94351.37
2022-09-17T06:41:17.156Z,94343.39
2022-09-17T06:43:45.770Z,94343.81
2022-09-17T06:46:17.056Z,94345.27
2022-09-17T06:48:46.332Z,94351.23
2022-09-17T06:51:15.181Z,94352.84
2022-09-17T06:53:43.885Z,94347.54
2022-09-17T06:56:14.168Z,94347.17
2022-09-17T06:58:43.125Z,94345.69
2022-09-17T07:01:15.707Z,94349.89
2022-09-17T07:03:45.768Z,94353.23
2022-09-17T07:06:14.943Z,94354.88
2022-09-17T07:08:44.142Z,94354.23
2022-09-17T07:11:12.522Z,94350.39
2022-09-17T07:13:41.342Z,94350.15
2022-09-17T07:16:10.838Z,94354.36
2022-09-17T07:18:43.652Z,94352.23
2022-09-17T07:21:12.180Z,94350.44
2022-09-17T07:23:42.173Z,94340.73
2022-09-17T07:26:16.035Z,94329.42
2022-09-17T07:28:46.277Z,94329.20
2022-09-17T07:31:16.563Z,94325.26
2022-09-17T07:33:46.233Z,94325.23
2022-09-17T07:36:18.287Z,94324.39
2022-09-17T07:38:47.555Z,94329.58
2022-09-17T07:41:18.401Z,94333.21
2022-09-17T07:43:47.784Z,94327.19
2022-09-17T07:46:20.787Z,94323.70
2022-09-17T07:48:50.284Z,94325.86
2022-09-17T07:51:22.103Z,94327.23
2022-09-17T07:53:58.280Z,94331.05
2022-09-17T07:56:28.545Z,94327.48
2022-09-17T07:58:59.421Z,94320.34
2022-09-17T08:01:29.481Z,94315.11
2022-09-17T08:03:59.357Z,94308.75
2022-09-17T08:06:30.818Z,94310.13
2022-09-17T08:09:02.865Z,94315.95
2022-09-17T08:14:28.474Z,94313.39
2022-09-17T08:16:59.609Z,94310.88
2022-09-17T08:19:32.246Z,94302.98
2022-09-17T08:22:02.424Z,94301.77
2022-09-17T08:24:31.253Z,94301.52
2022-09-17T08:26:59.594Z,94296.52
2022-09-17T08:29:30.976Z,94296.97
2022-09-17T08:32:02.906Z,94301.56
2022-09-17T08:34:32.963Z,94300.72
2022-09-17T08:37:03.286Z,94302.43
2022-09-17T08:39:33.907Z,94299.14
2022-09-17T08:42:14.239Z,94291.08
2022-09-17T08:44:46.333Z,94281.21
2022-09-17T08:47:28.795Z,94277.73
2022-09-17T08:50:03.606Z,94281.41
2022-09-17T08:52:54.966Z,94285.90
2022-09-17T08:55:44.136Z,94289.55
2022-09-17T08:58:27.622Z,94281.01
2022-09-17T09:01:24.897Z,94273.84
2022-09-17T09:04:03.708Z,94265.43
2022-09-17T09:06:45.210Z,94261.93
2022-09-17T09:09:21.352Z,94269.10
2022-09-17T09:12:01.722Z,94269.52
2022-09-17T09:14:57.383Z,94266.77
2022-09-17T09:17:32.753Z,94262.43
2022-09-17T09:20:01.639Z,94260.15
2022-09-17T09:22:51.482Z,94267.82
2022-09-17T09:25:32.906Z,94275.91
2022-09-17T09:28:20.191Z,94280.55
2022-09-17T09:31:04.919Z,94277.93
2022-09-17T09:33:47.889Z,94273.66
2022-09-17T09:36:22.226Z,94271.98
2022-09-17T09:39:03.614Z,94267.95
2022-09-17T09:41:43.625Z,94261.92
2022-09-17T09:44:15.984Z,94264.38
2022-09-17T09:47:17.072Z,94274.55
2022-09-17T09:50:15.697Z,94280.49
2022-09-17T09:53:02.922Z,94289.96
2022-09-17T09:55:59.951Z,94295.25
2022-09-17T09:58:36.492Z,94296.83
2022-09-17T10:01:16.101Z,94293.67
2022-09-17T10:03:48.478Z,94289.25
2022-09-17T10:06:22.789Z,94283.97
2022-09-17T10:08:51.297Z,94274.73
2022-09-17T10:11:23.137Z,94268.10
2022-09-17T10:13:52.389Z,94267.98
2022-09-17T10:16:27.895Z,94263.00
2022-09-17T10:19:05.609Z,94262.25
2022-09-17T10:21:40.583Z,94260.72
2022-09-17T10:24:34.679Z,94257.81
2022-09-17T10:27:14.082Z,94255.52
2022-09-17T10:29:49.431Z,94247.28
2022-09-17T10:32:21.012Z,94237.55
2022-09-17T10:35:04.996Z,94239.92
2022-09-17T10:37:46.096Z,94242.52
2022-09-17T10:40:24.385Z,94244.30
2022-09-17T10:43:17.973Z,94242.69
2022-09-17T10:46:01.335Z,94242.35
2022-09-17T10:48:38.983Z,94239.80
2022-09-17T10:51:09.140Z,94244.94
2022-09-17T10:54:09.300Z,94247.95
2022-09-17T10:56:41.262Z,94247.71
2022-09-17T10:59:36.054Z,94242.15
2022-09-17T11:02:22.791Z,94229.44
2022-09-17T11:05:12.613Z,94236.17
2022-09-17T11:08:03.022Z,94236.23
2022-09-17T11:10:44.576Z,94242.05
2022-09-17T11:13:42.095Z,94246.10
2022-09-17T11:16:55.724Z,94244.61
2022-09-17T11:19:51.668Z,94245.21
2022-09-17T11:22:46.306Z,94246.08
2022-09-17T11:25:45.130Z,94256.00
2022-09-17T11:28:24.550Z,94251.16
2022-09-17T11:31:11.720Z,94251.13
2022-09-17T11:33:59.831Z,94255.84
2022-09-17T11:36:38.079Z,94259.85
2022-09-17T11:39:29.051Z,94259.30
2022-09-17T11:42:03.691Z,94256.11
2022-09-17T11:44:50.004Z,94252.31
2022-09-17T11:47:24.195Z,94249.96
2022-09-17T11:50:21.207Z,94248.23
2022-09-17T11:53:00.790Z,94243.98
2022-09-17T11:55:51.279Z,94237.02
2022-09-17T11:58:47.426Z,94230.95
2022-09-17T12:01:33.677Z,94223.61
2022-09-17T12:04:25.932Z,94228.61
2022-09-17T12:07:21.709Z,94212.13
2022-09-17T12:10:22.128Z,94204.52
2022-09-17T12:13:03.615Z,94205.08
2022-09-17T12:15:39.590Z,94207.10
2022-09-17T12:18:32.640Z,94208.30
2022-09-17T12:21:06.480Z,94211.58
2022-09-17T12:23:39.214Z,94217.27
2022-09-17T12:26:21.965Z,94214.77
2022-09-17T12:29:16.817Z,94212.75
2022-09-17T12:31:46.356Z,94203.33
2022-09-17T12:34:40.712Z,94197.44
2022-09-17T12:37:27.403Z,94193.76
2022-09-17T12:40:08.675Z,94191.55
2022-09-17T12:43:18.838Z,94173.73
2022-09-17T12:46:46.209Z,94166.83
2022-09-17T12:49:34.806Z,94173.27
2022-09-17T12:52:20.544Z,94168.95
2022-09-17T12:55:07.799Z,94163.10
2022-09-17T12:57:52.886Z,94163.52
2022-09-17T13:00:22.819Z,94162.57
2022-09-17T13:03:20.296Z,94163.49
2022-09-17T13:06:19.687Z,94154.34
2022-09-17T13:09:00.586Z,94137.30
2022-09-17T13:11:45.884Z,94125.31
2022-09-17T13:14:47.188Z,94114.89
2022-09-17T13:17:39.879Z,94102.31
2022-09-17T13:20:26.301Z,94109.33
2022-09-17T13:22:57.511Z,94106.98
2022-09-17T13:25:28.317Z,94110.13
2022-09-17T13:28:11.573Z,94114.06
2022-09-17T13:31:00.886Z,94118.16
2022-09-17T13:33:52.492Z,94108.65
2022-09-17T13:36:34.903Z,94107.94
2022-09-17T13:39:05.679Z,94099.86
2022-09-17T13:41:39.348Z,94106.02
2022-09-17T13:44:11.071Z,94112.84
2022-09-17T13:46:40.602Z,94122.88
2022-09-17T13:49:16.581Z,94120.39
2022-09-17T13:51:48.575Z,94124.98
2022-09-17T13:54:19.844Z,94119.30
2022-09-17T13:57:07.291Z,94117.33
2022-09-17T13:59:37.768Z,94123.92
2022-09-17T14:02:17.971Z,94125.95
2022-09-17T14:04:57.486Z,94128.05
2022-09-17T14:07:28.597Z,94125.14
2022-09-17T14:09:59.617Z,94126.23
2022-09-17T14:12:50.043Z,94123.20
2022-09-17T14:15:54.334Z,94120.46
2022-09-17T14:18:31.415Z,94104.45
2022-09-17T14:21:09.059Z,94096.05
2022-09-17T14:23:45.485Z,94091.84
2022-09-17T14:26:35.672Z,94094.60
2022-09-17T14:29:15.920Z,94089.98
2022-09-17T14:31:45.460Z,94078.29
2022-09-17T14:34:21.493Z,94075.05
2022-09-17T14:36:56.829Z,94070.66
2022-09-17T14:39:37.310Z,94075.75
2022-09-17T14:42:15.397Z,94084.59
2022-09-17T14:44:59.099Z,94075.91
2022-09-17T14:47:28.226Z,94066.66
2022-09-17T14:50:22.261Z,94062.46
2022-09-17T14:52:54.381Z,94056.98
2022-09-17T14:55:26.781Z,94059.30
2022-09-17T14:58:03.085Z,94058.17
2022-09-17T15:00:40.782Z,94055.11
2022-09-17T15:03:22.797Z,94068.70
2022-09-17T15:05:52.389Z,94061.97
2022-09-17T15:08:26.308Z,94053.11
2022-09-17T15:10:58.236Z,94055.13
2022-09-17T15:13:30.515Z,94056.88
2022-09-17T15:15:59.837Z,94049.17
2022-09-17T15:18:40.332Z,94038.90
2022-09-17T15:21:25.189Z,94038.27
2022-09-17T15:23:59.952Z,94032.94
2022-09-17T15:26:34.209Z,94043.99
2022-09-17T15:29:04.422Z,94044.67
2022-09-17T15:31:33.028Z,94038.77
2022-09-17T15:34:01.738Z,94031.95
2022-09-17T15:36:31.924Z,94031.30
2022-09-17T15:39:01.825Z,94028.13
2022-09-17T15:41:32.537Z,94030.69
2022-09-17T15:44:30.457Z,94027.04
2022-09-17T15:47:55.738Z,94023.38
2022-09-17T15:50:28.908Z,94019.27
2022-09-17T15:53:09.436Z,94014.25
2022-09-17T15:55:44.127Z,94013.43
2022-09-17T15:58:33.331Z,94001.86
2022-09-17T16:01:17.190Z,93994.80
2022-09-17T16:03:46.616Z,93993.86
2022-09-17T16:06:25.711Z,93982.74
2022-09-17T16:08:56.292Z,93970.77
2022-09-17T16:11:27.252Z,93957.30
2022-09-17T16:13:58.471Z,93950.96
2022-09-17T16:16:36.230Z,93943.85
2022-09-17T16:19:06.623Z,93930.93
2022-09-17T16:21:36.170Z,93934.48
2022-09-17T16:24:05.563Z,93936.79
2022-09-17T16:26:35.734Z,93927.89
2022-09-17T16:29:07.240Z,93909.33
2022-09-17T16:31:36.003Z,93897.33
2022-09-17T16:34:04.162Z,93907.99
2022-09-17T16:36:33.117Z,93915.38
2022-09-17T16:39:03.732Z,93911.27
2022-09-17T16:41:31.853Z,93911.75
2022-09-17T16:43:59.947Z,93911.14
2022-09-17T16:46:28.366Z,93901.70
2022-09-17T16:48:57.442Z,93900.65
2022-09-17T16:51:25.761Z,93904.11
2022-09-17T16:53:54.503Z,93894.83
2022-09-17T16:56:23.489Z,93886.03
2022-09-17T16:58:56.578Z,93884.34
2022-09-17T17:01:24.983Z,93887.30
2022-09-17T17:03:55.938Z,93883.95
2022-09-17T17:06:24.546Z,93878.18
2022-09-17T17:08:53.133Z,93875.80
2022-09-17T17:11:22.537Z,93874.02
2022-09-17T17:13:51.481Z,93874.70
2022-09-17T17:16:21.386Z,93868.08
2022-09-17T17:18:53.312Z,93868.95
2022-09-17T17:21:22.704Z,93864.44
2022-09-17T17:23:51.102Z,93851.89
2022-09-17T17:26:19.654Z,93849.83
2022-09-17T17:28:50.059Z,93853.46
2022-09-17T17:31:18.650Z,93858.32
2022-09-17T17:33:50.092Z,93851.48
2022-09-17T17:36:19.555Z,93841.20
2022-09-17T17:38:49.331Z,93845.51
2022-09-17T17:41:18.410Z,93857.34
2022-09-17T17:43:46.645Z,93870.41
2022-09-17T17:46:16.964Z,93881.48
2022-09-17T17:48:46.238Z,93892.88
2022-09-17T17:51:15.997Z,93911.27
2022-09-17T17:53:45.832Z,93928.28
2022-09-17T17:56:14.175Z,93924.38
2022-09-17T17:58:43.390Z,93918.55
2022-09-17T18:01:25.458Z,93911.86
2022-09-17T18:03:59.344Z,93913.86
2022-09-17T18:06:28.241Z,93920.02
2022-09-17T18:08:59.075Z,93923.67
2022-09-17T18:11:28.212Z,93928.11
2022-09-17T18:13:58.673Z,93926.35
2022-09-17T18:16:30.758Z,93919.82
2022-09-17T18:18:59.171Z,93908.27
2022-09-17T18:21:29.034Z,93890.09
2022-09-17T18:23:58.323Z,93874.05
2022-09-17T18:26:27.903Z,93877.77
2022-09-17T18:28:57.642Z,93883.83
2022-09-17T18:31:28.952Z,93893.54
2022-09-17T18:34:00.847Z,93902.50
2022-09-17T18:36:32.984Z,93908.21
2022-09-17T18:41:54.468Z,93917.36
2022-09-17T18:44:22.637Z,93920.10
2022-09-17T18:46:51.721Z,93916.78
2022-09-17T18:49:20.700Z,93900.09
2022-09-17T18:51:49.949Z,93875.64
2022-09-17T18:54:18.366Z,93862.89
2022-09-17T18:56:48.526Z,93866.27
2022-09-17T18:59:19.814Z,93866.42
2022-09-17T19:01:49.579Z,93867.20
2022-09-17T19:04:18.434Z,93856.77
2022-09-17T19:06:46.723Z,93843.70
2022-09-17T19:09:15.937Z,93837.29
2022-09-17T19:11:44.819Z,93833.21
2022-09-17T19:14:15.721Z,93827.83
2022-09-17T19:16:44.465Z,93824.12
2022-09-17T19:19:13.174Z,93825.06
2022-09-17T19:21:41.871Z,93815.55
2022-09-17T19:24:11.038Z,93809.95
2022-09-17T19:26:39.675Z,93816.15
2022-09-17T19:29:11.785Z,93817.02
2022-09-17T19:31:41.547Z,93811.06
2022-09-17T19:34:10.130Z,93806.29
2022-09-17T19:36:39.865Z,93808.23
2022-09-17T19:39:08.563Z,93802.50
2022-09-17T19:41:36.755Z,93796.42
2022-09-17T19:44:10.797Z,93794.09
2022-09-17T19:46:39.392Z,93789.15
2022-09-17T19:49:09.376Z,93785.91
2022-09-17T19:51:38.559Z,93776.53
2022-09-17T19:54:09.698Z,93775.90
2022-09-17T19:56:39.323Z,93780.29
2022-09-17T19:59:10.182Z,93787.21
2022-09-17T20:01:40.781Z,93782.54
2022-09-17T20:04:10.633Z,93782.66
2022-09-17T20:06:38.903Z,93787.48
2022-09-17T20:09:07.283Z,93787.23
2022-09-17T20:11:35.461Z,93789.31
2022-09-17T20:14:06.837Z,93789.54
2022-09-17T20:16:37.622Z,93789.55
2022-09-17T20:19:08.131Z,93788.70
2022-09-17T20:21:36.376Z,93793.23
2022-09-17T20:24:07.240Z,93793.53
2022-09-17T20:26:35.688Z,93786.39
2022-09-17T20:29:05.295Z,93788.88
2022-09-17T20:31:34.370Z,93785.30
2022-09-17T20:34:04.029Z,93781.45
2022-09-17T20:36:35.443Z,93783.55
2022-09-17T20:39:13.287Z,93789.30
2022-09-17T20:41:45.318Z,93789.75
2022-09-17T20:44:14.514Z,93791.16
2022-09-17T20:46:43.287Z,93797.55
2022-09-17T20:49:12.783Z,93818.75
2022-09-17T20:51:42.886Z,93828.98
2022-09-17T20:54:11.970Z,93838.38
2022-09-17T20:56:41.123Z,93853.50
2022-09-17T20:59:18.947Z,93845.96
2022-09-17T21:01:49.750Z,93832.73
2022-09-17T21:04:20.529Z,93818.27
2022-09-17T21:06:54.503Z,93815.90
2022-09-17T21:09:23.939Z,93807.80
2022-09-17T21:11:52.043Z,93806.02
2022-09-17T21:14:21.429Z,93799.30
2022-09-17T21:16:52.052Z,93792.66
2022-09-17T21:19:24.489Z,93790.90
2022-09-17T21:21:54.750Z,93788.20
2022-09-17T21:24:24.007Z,93785.58
2022-09-17T21:26:54.320Z,93790.05
2022-09-17T21:29:24.353Z,93784.15
2022-09-17T21:31:53.265Z,93777.85
2022-09-17T21:34:21.898Z,93759.43
2022-09-17T21:36:51.771Z,93747.39
2022-09-17T21:39:19.852Z,93750.09
2022-09-17T21:41:48.713Z,93755.61
2022-09-17T21:44:17.372Z,93759.29
2022-09-17T21:46:45.851Z,93760.89
2022-09-17T21:49:16.594Z,93766.67
2022-09-17T21:51:44.869Z,93775.52
2022-09-17T21:54:17.479Z,93777.85
2022-09-17T21:56:46.806Z,93770.43
2022-09-17T21:59:17.718Z,93766.73
2022-09-17T22:01:50.173Z,93767.27
2022-09-17T22:04:21.368Z,93777.46
2022-09-17T22:06:50.596Z,93774.09
2022-09-17T22:09:25.464Z,93770.75
2022-09-17T22:11:53.961Z,93769.80
2022-09-17T22:14:25.064Z,93761.38
2022-09-17T22:16:57.455Z,93748.40
2022-09-17T22:19:27.042Z,93723.65
2022-09-17T22:21:56.585Z,93701.73
2022-09-17T22:24:26.857Z,93691.59
2022-09-17T22:26:58.228Z,93703.63
2022-09-17T22:29:31.789Z,93695.56
2022-09-17T22:32:02.667Z,93677.86
2022-09-17T22:34:31.368Z,93693.37
2022-09-17T22:37:01.032Z,93698.36
2022-09-17T22:39:33.397Z,93702.04
2022-09-17T22:42:01.716Z,93711.38
2022-09-17T22:44:30.388Z,93705.41
2022-09-17T22:47:01.187Z,93709.61
2022-09-17T22:49:37.893Z,93700.98
2022-09-17T22:52:06.713Z,93687.81
2022-09-17T22:54:36.159Z,93681.15
2022-09-17T22:57:06.018Z,93689.10
2022-09-17T22:59:34.861Z,93695.43
2022-09-17T23:02:04.086Z,93706.78
2022-09-17T23:04:33.231Z,93731.06
2022-09-17T23:07:03.975Z,93740.90
2022-09-17T23:09:32.976Z,93740.20
2022-09-17T23:12:01.366Z,93750.27
2022-09-17T23:14:29.537Z,93744.94
2022-09-17T23:16:57.876Z,93746.98
2022-09-17T23:19:27.488Z,93749.25
2022-09-17T23:21:59.395Z,93745.59
2022-09-17T23:24:28.568Z,93752.51
2022-09-17T23:26:56.959Z,93757.54
2022-09-17T23:29:25.774Z,93759.26
2022-09-17T23:31:53.932Z,93766.54
2022-09-17T23:34:22.239Z,93769.02
2022-09-17T23:36:51.855Z,93773.59
2022-09-17T23:39:20.232Z,93783.23
2022-09-17T23:41:48.463Z,93786.06
2022-09-17T23:44:17.192Z,93794.92
2022-09-17T23:46:47.339Z,93797.23
2022-09-17T23:49:18.828Z,93801.45
2022-09-17T23:51:48.188Z,93806.58
2022-09-17T23:54:17.586Z,93805.00
2022-09-17T23:56:46.836Z,93802.02
2022-09-17T23:59:15.212Z,93800.69
